sensor_id;sensor_type;location;lat;lon;timestamp;pressure;altitude;pressure_sealevel;temperature;humidity
7584;BME280;3833;41.764;26.204;2022-08-19T00:01:32;100198.63;;;26.85;100.00
7584;BME280;3833;41.764;26.204;2022-08-19T00:04:03;100195.41;;;27.22;100.00
7584;BME280;3833;41.764;26.204;2022-08-19T00:06:30;100195.44;;;27.14;100.00
7584;BME280;3833;41.764;26.204;2022-08-19T00:08:58;100207.50;;;26.94;100.00
7584;BME280;3833;41.764;26.204;2022-08-19T00:11:27;100202.63;;;27.13;100.00
7584;BME280;3833;41.764;26.204;2022-08-19T00:13:54;100201.09;;;27.35;100.00
7584;BME280;3833;41.764;26.204;2022-08-19T00:16:22;100191.19;;;27.35;100.00
7584;BME280;3833;41.764;26.204;2022-08-19T00:18:49;100202.97;;;27.26;100.00
7584;BME280;3833;41.764;26.204;2022-08-19T00:21:16;100206.16;;;27.06;100.00
7584;BME280;3833;41.764;26.204;2022-08-19T00:23:43;100207.50;;;26.94;100.00
7584;BME280;3833;41.764;26.204;2022-08-19T00:26:10;100196.44;;;26.81;100.00
7584;BME280;3833;41.764;26.204;2022-08-19T00:28:39;100196.44;;;26.81;100.00
7584;BME280;3833;41.764;26.204;2022-08-19T00:31:07;100200.28;;;26.70;100.00
7584;BME280;3833;41.764;26.204;2022-08-19T00:33:35;100201.16;;;26.71;100.00
7584;BME280;3833;41.764;26.204;2022-08-19T00:36:04;100200.47;;;27.09;100.00
7584;BME280;3833;41.764;26.204;2022-08-19T00:38:32;100195.25;;;27.31;100.00
7584;BME280;3833;41.764;26.204;2022-08-19T00:40:59;100195.09;;;26.85;100.00
7584;BME280;3833;41.764;26.204;2022-08-19T00:43:27;100181.63;;;26.21;100.00
7584;BME280;3833;41.764;26.204;2022-08-19T00:45:55;100189.84;;;26.36;100.00
7584;BME280;3833;41.764;26.204;2022-08-19T00:48:22;100201.16;;;26.55;100.00
7584;BME280;3833;41.764;26.204;2022-08-19T00:50:50;100202.13;;;26.62;100.00
7584;BME280;3833;41.764;26.204;2022-08-19T00:53:21;100200.72;;;26.26;100.00
7584;BME280;3833;41.764;26.204;2022-08-19T00:55:52;100198.31;;;26.48;100.00
7584;BME280;3833;41.764;26.204;2022-08-19T00:58:22;100208.59;;;26.36;100.00
7584;BME280;3833;41.764;26.204;2022-08-19T01:00:50;100214.25;;;26.09;100.00
7584;BME280;3833;41.764;26.204;2022-08-19T01:03:20;100191.00;;;25.76;100.00
7584;BME280;3833;41.764;26.204;2022-08-19T01:05:49;100200.53;;;25.70;100.00
7584;BME280;3833;41.764;26.204;2022-08-19T01:08:19;100208.34;;;25.89;100.00
7584;BME280;3833;41.764;26.204;2022-08-19T01:10:49;100201.72;;;26.17;100.00
7584;BME280;3833;41.764;26.204;2022-08-19T01:13:19;100197.63;;;25.89;100.00
7584;BME280;3833;41.764;26.204;2022-08-19T01:15:50;100202.84;;;25.99;100.00
7584;BME280;3833;41.764;26.204;2022-08-19T01:18:20;100186.34;;;26.27;100.00
7584;BME280;3833;41.764;26.204;2022-08-19T01:20:47;100160.19;;;25.97;100.00
7584;BME280;3833;41.764;26.204;2022-08-19T01:23:16;100188.41;;;25.92;100.00
7584;BME280;3833;41.764;26.204;2022-08-19T01:25:45;100189.78;;;25.62;100.00
7584;BME280;3833;41.764;26.204;2022-08-19T01:28:19;100191.03;;;26.17;100.00
7584;BME280;3833;41.764;26.204;2022-08-19T01:30:47;100185.84;;;26.32;100.00
7584;BME280;3833;41.764;26.204;2022-08-19T01:33:14;100202.47;;;26.67;100.00
7584;BME280;3833;41.764;26.204;2022-08-19T01:35:42;100196.63;;;26.63;100.00
7584;BME280;3833;41.764;26.204;2022-08-19T01:38:21;100205.69;;;25.97;100.00
7584;BME280;3833;41.764;26.204;2022-08-19T01:40:49;100201.06;;;26.23;100.00
7584;BME280;3833;41.764;26.204;2022-08-19T01:43:16;100184.66;;;26.42;100.00
7584;BME280;3833;41.764;26.204;2022-08-19T01:45:45;100185.72;;;26.65;100.00
7584;BME280;3833;41.764;26.204;2022-08-19T01:48:13;100194.94;;;26.86;100.00
7584;BME280;3833;41.764;26.204;2022-08-19T01:50:40;100201.31;;;26.85;100.00
7584;BME280;3833;41.764;26.204;2022-08-19T01:53:10;100209.00;;;25.99;100.00
7584;BME280;3833;41.764;26.204;2022-08-19T01:55:41;100143.25;;;25.47;100.00
7584;BME280;3833;41.764;26.204;2022-08-19T01:58:11;100204.09;;;25.45;100.00
7584;BME280;3833;41.764;26.204;2022-08-19T02:00:39;100137.25;;;24.17;100.00
7584;BME280;3833;41.764;26.204;2022-08-19T02:03:06;100205.06;;;24.24;100.00
7584;BME280;3833;41.764;26.204;2022-08-19T02:05:33;100201.97;;;24.46;100.00
7584;BME280;3833;41.764;26.204;2022-08-19T02:08:00;100202.09;;;24.27;100.00
7584;BME280;3833;41.764;26.204;2022-08-19T02:10:27;100201.75;;;23.95;100.00
7584;BME280;3833;41.764;26.204;2022-08-19T02:12:55;100197.19;;;23.51;100.00
7584;BME280;3833;41.764;26.204;2022-08-19T02:15:25;100199.53;;;23.54;100.00
7584;BME280;3833;41.764;26.204;2022-08-19T02:17:52;100194.53;;;23.78;100.00
7584;BME280;3833;41.764;26.204;2022-08-19T02:20:19;100202.69;;;24.21;100.00
7584;BME280;3833;41.764;26.204;2022-08-19T02:22:46;100204.88;;;24.70;100.00
7584;BME280;3833;41.764;26.204;2022-08-19T02:25:13;100206.31;;;25.25;100.00
7584;BME280;3833;41.764;26.204;2022-08-19T02:27:41;100207.63;;;25.54;100.00
7584;BME280;3833;41.764;26.204;2022-08-19T02:30:12;100201.91;;;25.49;100.00
7584;BME280;3833;41.764;26.204;2022-08-19T02:32:41;100209.19;;;25.64;100.00
7584;BME280;3833;41.764;26.204;2022-08-19T02:35:08;100203.41;;;25.77;100.00
7584;BME280;3833;41.764;26.204;2022-08-19T02:37:35;100209.50;;;25.95;100.00
7584;BME280;3833;41.764;26.204;2022-08-19T02:40:32;100195.25;;;25.86;100.00
7584;BME280;3833;41.764;26.204;2022-08-19T02:42:59;100209.66;;;25.85;100.00
7584;BME280;3833;41.764;26.204;2022-08-19T02:45:31;100215.69;;;25.87;100.00
7584;BME280;3833;41.764;26.204;2022-08-19T02:47:59;100218.34;;;25.87;100.00
7584;BME280;3833;41.764;26.204;2022-08-19T02:50:26;100225.88;;;25.84;100.00
7584;BME280;3833;41.764;26.204;2022-08-19T02:52:53;100220.22;;;25.87;100.00
7584;BME280;3833;41.764;26.204;2022-08-19T02:55:20;100230.78;;;25.96;100.00
7584;BME280;3833;41.764;26.204;2022-08-19T02:57:47;100214.50;;;25.82;100.00
7584;BME280;3833;41.764;26.204;2022-08-19T03:00:14;100225.19;;;25.82;100.00
7584;BME280;3833;41.764;26.204;2022-08-19T03:02:43;100223.53;;;25.81;100.00
7584;BME280;3833;41.764;26.204;2022-08-19T03:05:10;100227.03;;;25.81;100.00
7584;BME280;3833;41.764;26.204;2022-08-19T03:07:37;100241.16;;;25.99;100.00
7584;BME280;3833;41.764;26.204;2022-08-19T03:10:05;100237.81;;;26.05;100.00
7584;BME280;3833;41.764;26.204;2022-08-19T03:12:35;100249.53;;;26.04;100.00
7584;BME280;3833;41.764;26.204;2022-08-19T03:15:04;100254.47;;;25.83;100.00
7584;BME280;3833;41.764;26.204;2022-08-19T03:17:33;100260.41;;;25.69;100.00
7584;BME280;3833;41.764;26.204;2022-08-19T03:20:03;100255.00;;;25.61;100.00
7584;BME280;3833;41.764;26.204;2022-08-19T03:22:30;100253.16;;;25.62;100.00
7584;BME280;3833;41.764;26.204;2022-08-19T03:24:57;100261.56;;;25.41;100.00
7584;BME280;3833;41.764;26.204;2022-08-19T03:27:24;100258.19;;;25.39;100.00
7584;BME280;3833;41.764;26.204;2022-08-19T03:29:51;100262.22;;;25.35;100.00
7584;BME280;3833;41.764;26.204;2022-08-19T03:32:18;100273.22;;;25.33;100.00
7584;BME280;3833;41.764;26.204;2022-08-19T03:34:45;100278.03;;;25.54;100.00
7584;BME280;3833;41.764;26.204;2022-08-19T03:37:13;100276.09;;;25.64;100.00
7584;BME280;3833;41.764;26.204;2022-08-19T03:39:41;100281.13;;;25.67;100.00
7584;BME280;3833;41.764;26.204;2022-08-19T03:42:08;100269.41;;;25.68;100.00
7584;BME280;3833;41.764;26.204;2022-08-19T03:44:35;100253.31;;;25.10;100.00
7584;BME280;3833;41.764;26.204;2022-08-19T03:47:03;100276.50;;;25.27;100.00
7584;BME280;3833;41.764;26.204;2022-08-19T03:49:31;100277.00;;;25.47;100.00
7584;BME280;3833;41.764;26.204;2022-08-19T03:52:00;100276.38;;;25.53;100.00
7584;BME280;3833;41.764;26.204;2022-08-19T03:54:29;100277.72;;;25.57;100.00
7584;BME280;3833;41.764;26.204;2022-08-19T03:56:56;100277.88;;;25.81;100.00
7584;BME280;3833;41.764;26.204;2022-08-19T03:59:25;100289.94;;;25.85;100.00
7584;BME280;3833;41.764;26.204;2022-08-19T04:01:53;100289.53;;;25.72;100.00
7584;BME280;3833;41.764;26.204;2022-08-19T04:04:20;100287.91;;;25.79;100.00
7584;BME280;3833;41.764;26.204;2022-08-19T04:06:47;100283.31;;;25.72;100.00
7584;BME280;3833;41.764;26.204;2022-08-19T04:09:15;100284.09;;;25.64;100.00
7584;BME280;3833;41.764;26.204;2022-08-19T04:11:45;100278.44;;;25.67;100.00
7584;BME280;3833;41.764;26.204;2022-08-19T04:14:16;100296.50;;;25.65;100.00
7584;BME280;3833;41.764;26.204;2022-08-19T04:16:44;100291.94;;;25.33;100.00
7584;BME280;3833;41.764;26.204;2022-08-19T04:19:12;100296.22;;;25.26;100.00
7584;BME280;3833;41.764;26.204;2022-08-19T04:21:39;100296.84;;;25.20;100.00
7584;BME280;3833;41.764;26.204;2022-08-19T04:24:11;100293.69;;;25.07;100.00
7584;BME280;3833;41.764;26.204;2022-08-19T04:26:38;100293.78;;;24.97;100.00
7584;BME280;3833;41.764;26.204;2022-08-19T04:29:07;100293.88;;;24.88;100.00
7584;BME280;3833;41.764;26.204;2022-08-19T04:31:35;100293.88;;;24.88;100.00
7584;BME280;3833;41.764;26.204;2022-08-19T04:34:07;100286.94;;;24.77;100.00
7584;BME280;3833;41.764;26.204;2022-08-19T04:36:38;100293.63;;;24.64;100.00
7584;BME280;3833;41.764;26.204;2022-08-19T04:39:09;100310.34;;;24.66;100.00
7584;BME280;3833;41.764;26.204;2022-08-19T04:41:37;100297.47;;;24.61;100.00
7584;BME280;3833;41.764;26.204;2022-08-19T04:44:23;100301.13;;;24.78;100.00
7584;BME280;3833;41.764;26.204;2022-08-19T04:46:51;100291.75;;;24.74;100.00
7584;BME280;3833;41.764;26.204;2022-08-19T04:49:20;100294.09;;;24.77;100.00
7584;BME280;3833;41.764;26.204;2022-08-19T04:51:47;100291.88;;;24.90;100.00
7584;BME280;3833;41.764;26.204;2022-08-19T04:54:15;100295.72;;;24.70;100.00
7584;BME280;3833;41.764;26.204;2022-08-19T04:56:43;100301.03;;;24.87;100.00
7584;BME280;3833;41.764;26.204;2022-08-19T04:59:10;100302.88;;;24.87;100.00
7584;BME280;3833;41.764;26.204;2022-08-19T05:01:38;100299.06;;;24.72;100.00
7584;BME280;3833;41.764;26.204;2022-08-19T05:04:06;100290.50;;;24.51;100.00
7584;BME280;3833;41.764;26.204;2022-08-19T05:06:34;100306.25;;;24.54;100.00
7584;BME280;3833;41.764;26.204;2022-08-19T05:09:02;100312.50;;;24.80;100.00
7584;BME280;3833;41.764;26.204;2022-08-19T05:11:31;100317.88;;;25.15;100.00
7584;BME280;3833;41.764;26.204;2022-08-19T05:13:58;100321.66;;;25.30;100.00
7584;BME280;3833;41.764;26.204;2022-08-19T05:16:25;100320.41;;;25.41;100.00
7584;BME280;3833;41.764;26.204;2022-08-19T05:18:54;100329.59;;;25.64;100.00
7584;BME280;3833;41.764;26.204;2022-08-19T05:21:40;100327.28;;;25.69;100.00
7584;BME280;3833;41.764;26.204;2022-08-19T05:24:24;100315.91;;;25.67;100.00
7584;BME280;3833;41.764;26.204;2022-08-19T05:26:52;100321.44;;;25.91;100.00
7584;BME280;3833;41.764;26.204;2022-08-19T05:29:23;100330.22;;;26.09;100.00
7584;BME280;3833;41.764;26.204;2022-08-19T05:31:51;100334.31;;;26.29;100.00
7584;BME280;3833;41.764;26.204;2022-08-19T05:34:21;100337.44;;;26.50;100.00
7584;BME280;3833;41.764;26.204;2022-08-19T05:36:52;100320.53;;;26.49;100.00
7584;BME280;3833;41.764;26.204;2022-08-19T05:39:24;100334.94;;;26.56;100.00
7584;BME280;3833;41.764;26.204;2022-08-19T05:41:53;100316.34;;;26.47;100.00
7584;BME280;3833;41.764;26.204;2022-08-19T05:44:23;100330.41;;;26.49;100.00
7584;BME280;3833;41.764;26.204;2022-08-19T05:46:50;100316.94;;;26.41;100.00
7584;BME280;3833;41.764;26.204;2022-08-19T05:49:21;100323.72;;;26.61;100.00
7584;BME280;3833;41.764;26.204;2022-08-19T05:51:49;100329.25;;;26.59;100.00
7584;BME280;3833;41.764;26.204;2022-08-19T05:54:16;100317.03;;;26.65;100.00
7584;BME280;3833;41.764;26.204;2022-08-19T05:56:43;100318.41;;;26.69;100.00
7584;BME280;3833;41.764;26.204;2022-08-19T05:59:14;100318.72;;;26.66;100.00
7584;BME280;3833;41.764;26.204;2022-08-19T06:01:43;100312.84;;;26.70;100.00
7584;BME280;3833;41.764;26.204;2022-08-19T06:04:11;100324.13;;;26.90;100.00
7584;BME280;3833;41.764;26.204;2022-08-19T06:06:40;100321.47;;;27.06;100.00
7584;BME280;3833;41.764;26.204;2022-08-19T06:09:07;100326.38;;;27.26;100.00
7584;BME280;3833;41.764;26.204;2022-08-19T06:11:38;100328.19;;;27.49;100.00
7584;BME280;3833;41.764;26.204;2022-08-19T06:14:09;100331.50;;;27.83;100.00
7584;BME280;3833;41.764;26.204;2022-08-19T06:16:37;100320.00;;;28.05;99.17
7584;BME280;3833;41.764;26.204;2022-08-19T06:19:06;100322.63;;;28.29;94.11
7584;BME280;3833;41.764;26.204;2022-08-19T06:21:35;100276.28;;;27.89;93.33
7584;BME280;3833;41.764;26.204;2022-08-19T06:24:06;100321.69;;;28.14;94.01
7584;BME280;3833;41.764;26.204;2022-08-19T06:26:34;100328.34;;;28.26;93.05
7584;BME280;3833;41.764;26.204;2022-08-19T06:29:01;100320.81;;;28.22;91.40
7584;BME280;3833;41.764;26.204;2022-08-19T06:31:29;100320.81;;;28.22;91.64
7584;BME280;3833;41.764;26.204;2022-08-19T06:33:58;100310.75;;;28.16;92.20
7584;BME280;3833;41.764;26.204;2022-08-19T06:36:29;100320.97;;;28.28;92.80
7584;BME280;3833;41.764;26.204;2022-08-19T06:38:57;100311.22;;;28.27;92.04
7584;BME280;3833;41.764;26.204;2022-08-19T06:41:26;100314.56;;;28.37;90.17
7584;BME280;3833;41.764;26.204;2022-08-19T06:43:54;100314.81;;;28.50;89.72
7584;BME280;3833;41.764;26.204;2022-08-19T06:46:21;100320.09;;;28.66;88.33
7584;BME280;3833;41.764;26.204;2022-08-19T06:48:49;100316.44;;;28.89;87.96
7584;BME280;3833;41.764;26.204;2022-08-19T06:51:19;100310.59;;;29.08;86.90
7584;BME280;3833;41.764;26.204;2022-08-19T06:53:46;100318.81;;;29.29;87.56
7584;BME280;3833;41.764;26.204;2022-08-19T06:56:14;100318.06;;;29.58;85.91
7584;BME280;3833;41.764;26.204;2022-08-19T06:58:43;100315.78;;;29.83;83.21
7584;BME280;3833;41.764;26.204;2022-08-19T07:01:10;100296.94;;;29.83;83.62
7584;BME280;3833;41.764;26.204;2022-08-19T07:03:37;100310.31;;;30.20;81.54
7584;BME280;3833;41.764;26.204;2022-08-19T07:06:07;100286.63;;;30.86;75.70
7584;BME280;3833;41.764;26.204;2022-08-19T07:08:35;100306.56;;;32.09;70.94
7584;BME280;3833;41.764;26.204;2022-08-19T07:11:05;100308.34;;;34.06;64.82
7584;BME280;3833;41.764;26.204;2022-08-19T07:13:32;100305.63;;;34.69;60.12
7584;BME280;3833;41.764;26.204;2022-08-19T07:16:03;100295.50;;;35.44;57.20
7584;BME280;3833;41.764;26.204;2022-08-19T07:18:29;100304.09;;;35.66;55.00
7584;BME280;3833;41.764;26.204;2022-08-19T07:21:03;100300.03;;;35.50;54.80
7584;BME280;3833;41.764;26.204;2022-08-19T07:23:29;100304.81;;;35.79;54.33
7584;BME280;3833;41.764;26.204;2022-08-19T07:25:56;100303.38;;;35.77;54.10
7584;BME280;3833;41.764;26.204;2022-08-19T07:28:23;100290.16;;;36.52;52.35
7584;BME280;3833;41.764;26.204;2022-08-19T07:30:50;100284.81;;;37.04;50.10
7584;BME280;3833;41.764;26.204;2022-08-19T07:33:18;100302.97;;;37.10;49.37
7584;BME280;3833;41.764;26.204;2022-08-19T07:35:45;100312.53;;;36.36;50.76
7584;BME280;3833;41.764;26.204;2022-08-19T07:38:12;100305.16;;;35.65;52.54
7584;BME280;3833;41.764;26.204;2022-08-19T07:40:40;100299.59;;;35.29;52.92
7584;BME280;3833;41.764;26.204;2022-08-19T07:43:08;100307.13;;;34.96;54.16
7584;BME280;3833;41.764;26.204;2022-08-19T07:45:35;100298.09;;;35.33;54.18
7584;BME280;3833;41.764;26.204;2022-08-19T07:48:02;100303.03;;;35.67;51.96
7584;BME280;3833;41.764;26.204;2022-08-19T07:50:31;100305.69;;;35.73;51.24
7584;BME280;3833;41.764;26.204;2022-08-19T07:52:58;100294.00;;;35.91;50.51
7584;BME280;3833;41.764;26.204;2022-08-19T07:55:27;100300.41;;;35.60;50.96
7584;BME280;3833;41.764;26.204;2022-08-19T07:57:54;100298.41;;;36.28;50.82
7584;BME280;3833;41.764;26.204;2022-08-19T08:00:21;100298.28;;;36.70;48.88
7584;BME280;3833;41.764;26.204;2022-08-19T08:02:48;100300.97;;;36.23;49.40
7584;BME280;3833;41.764;26.204;2022-08-19T08:05:15;100285.81;;;36.62;48.74
7584;BME280;3833;41.764;26.204;2022-08-19T08:08:00;100296.66;;;36.80;48.23
7584;BME280;3833;41.764;26.204;2022-08-19T08:10:44;100251.25;;;35.98;49.04
7584;BME280;3833;41.764;26.204;2022-08-19T08:13:11;100284.97;;;36.15;49.00
7584;BME280;3833;41.764;26.204;2022-08-19T08:15:38;100305.84;;;36.38;49.59
7584;BME280;3833;41.764;26.204;2022-08-19T08:18:05;100286.50;;;36.87;48.16
7584;BME280;3833;41.764;26.204;2022-08-19T08:20:33;100275.84;;;37.15;47.74
7584;BME280;3833;41.764;26.204;2022-08-19T08:23:01;100285.38;;;36.95;47.91
7584;BME280;3833;41.764;26.204;2022-08-19T08:25:46;100283.03;;;36.80;47.56
7584;BME280;3833;41.764;26.204;2022-08-19T08:28:14;100286.22;;;36.95;46.39
7584;BME280;3833;41.764;26.204;2022-08-19T08:30:41;100241.69;;;36.42;47.42
7584;BME280;3833;41.764;26.204;2022-08-19T08:33:09;100281.78;;;36.53;48.01
7584;BME280;3833;41.764;26.204;2022-08-19T08:35:36;100242.25;;;36.62;47.64
7584;BME280;3833;41.764;26.204;2022-08-19T08:38:05;100283.38;;;37.43;46.11
7584;BME280;3833;41.764;26.204;2022-08-19T08:40:39;100281.59;;;37.71;44.35
7584;BME280;3833;41.764;26.204;2022-08-19T08:43:09;100282.91;;;37.91;43.34
7584;BME280;3833;41.764;26.204;2022-08-19T08:45:43;100280.47;;;38.18;42.91
7584;BME280;3833;41.764;26.204;2022-08-19T08:48:25;100275.97;;;38.63;41.72
7584;BME280;3833;41.764;26.204;2022-08-19T08:50:58;100272.75;;;37.23;43.59
7584;BME280;3833;41.764;26.204;2022-08-19T08:53:30;100263.34;;;37.60;43.52
7584;BME280;3833;41.764;26.204;2022-08-19T08:56:01;100265.53;;;38.60;41.64
7584;BME280;3833;41.764;26.204;2022-08-19T08:58:32;100255.75;;;38.63;40.54
7584;BME280;3833;41.764;26.204;2022-08-19T09:01:09;100213.13;;;38.63;40.61
7584;BME280;3833;41.764;26.204;2022-08-19T09:03:37;100242.25;;;39.01;39.70
7584;BME280;3833;41.764;26.204;2022-08-19T09:06:07;100246.78;;;38.52;38.74
7584;BME280;3833;41.764;26.204;2022-08-19T09:08:46;100250.09;;;38.26;39.67
7584;BME280;3833;41.764;26.204;2022-08-19T09:11:19;100251.50;;;38.56;41.29
7584;BME280;3833;41.764;26.204;2022-08-19T09:14:07;100250.88;;;38.65;40.22
7584;BME280;3833;41.764;26.204;2022-08-19T09:16:35;100243.75;;;38.37;40.01
7584;BME280;3833;41.764;26.204;2022-08-19T09:19:07;100244.59;;;38.65;39.94
7584;BME280;3833;41.764;26.204;2022-08-19T09:21:34;100228.78;;;38.67;38.74
7584;BME280;3833;41.764;26.204;2022-08-19T09:24:05;100245.31;;;38.61;38.64
7584;BME280;3833;41.764;26.204;2022-08-19T09:26:32;100193.50;;;37.25;40.14
7584;BME280;3833;41.764;26.204;2022-08-19T09:28:59;100228.72;;;37.38;40.78
7584;BME280;3833;41.764;26.204;2022-08-19T09:31:28;100245.53;;;37.69;40.63
7584;BME280;3833;41.764;26.204;2022-08-19T09:33:56;100235.09;;;37.89;40.07
7584;BME280;3833;41.764;26.204;2022-08-19T09:36:24;100233.53;;;38.71;39.45
7584;BME280;3833;41.764;26.204;2022-08-19T09:38:55;100225.34;;;38.71;38.32
7584;BME280;3833;41.764;26.204;2022-08-19T09:41:24;100232.91;;;39.30;37.65
7584;BME280;3833;41.764;26.204;2022-08-19T09:43:53;100227.13;;;39.43;37.40
7584;BME280;3833;41.764;26.204;2022-08-19T09:46:22;100222.91;;;39.19;34.59
7584;BME280;3833;41.764;26.204;2022-08-19T09:48:50;100221.03;;;38.48;34.06
7584;BME280;3833;41.764;26.204;2022-08-19T09:51:19;100218.66;;;38.95;34.10
7584;BME280;3833;41.764;26.204;2022-08-19T09:53:47;100199.41;;;38.74;34.74
7584;BME280;3833;41.764;26.204;2022-08-19T09:56:17;100211.25;;;39.45;33.52
7584;BME280;3833;41.764;26.204;2022-08-19T09:58:45;100203.38;;;39.11;33.16
7584;BME280;3833;41.764;26.204;2022-08-19T10:01:16;100198.44;;;39.29;33.93
7584;BME280;3833;41.764;26.204;2022-08-19T10:03:47;100214.06;;;39.88;32.77
7584;BME280;3833;41.764;26.204;2022-08-19T10:06:15;100195.94;;;39.82;32.47
7584;BME280;3833;41.764;26.204;2022-08-19T10:08:42;100182.88;;;39.89;32.96
7584;BME280;3833;41.764;26.204;2022-08-19T10:11:09;100208.03;;;40.50;32.09
7584;BME280;3833;41.764;26.204;2022-08-19T10:13:36;100209.09;;;40.28;32.53
7584;BME280;3833;41.764;26.204;2022-08-19T10:16:08;100213.09;;;38.90;32.96
7584;BME280;3833;41.764;26.204;2022-08-19T10:18:36;100210.59;;;38.72;34.00
7584;BME280;3833;41.764;26.204;2022-08-19T10:21:05;100212.41;;;39.49;32.82
7584;BME280;3833;41.764;26.204;2022-08-19T10:23:37;100199.66;;;40.14;32.44
7584;BME280;3833;41.764;26.204;2022-08-19T10:26:05;100207.66;;;40.68;31.30
7584;BME280;3833;41.764;26.204;2022-08-19T10:28:33;100188.81;;;40.77;31.21
7584;BME280;3833;41.764;26.204;2022-08-19T10:31:09;100200.53;;;40.41;31.15
7584;BME280;3833;41.764;26.204;2022-08-19T10:33:37;100199.66;;;40.14;32.19
7584;BME280;3833;41.764;26.204;2022-08-19T10:36:06;100199.19;;;39.41;32.32
7584;BME280;3833;41.764;26.204;2022-08-19T10:38:33;100195.56;;;39.19;32.27
7584;BME280;3833;41.764;26.204;2022-08-19T10:41:07;100154.78;;;38.68;32.53
7584;BME280;3833;41.764;26.204;2022-08-19T10:43:36;100192.44;;;39.86;32.20
7584;BME280;3833;41.764;26.204;2022-08-19T10:46:06;100189.09;;;40.75;31.30
7584;BME280;3833;41.764;26.204;2022-08-19T10:48:36;100209.16;;;41.48;30.38
7584;BME280;3833;41.764;26.204;2022-08-19T10:51:04;100161.53;;;41.69;29.62
7584;BME280;3833;41.764;26.204;2022-08-19T10:53:48;100198.53;;;42.08;29.31
7584;BME280;3833;41.764;26.204;2022-08-19T10:56:16;100181.06;;;42.59;28.46
7584;BME280;3833;41.764;26.204;2022-08-19T11:02:42;100183.13;;;41.56;28.89
7584;BME280;3833;41.764;26.204;2022-08-19T11:05:09;100194.28;;;41.39;29.59
7584;BME280;3833;41.764;26.204;2022-08-19T11:07:37;100153.84;;;40.88;30.17
7584;BME280;3833;41.764;26.204;2022-08-19T11:10:05;100164.09;;;40.72;30.03
7584;BME280;3833;41.764;26.204;2022-08-19T11:12:32;100178.72;;;41.13;30.24
7584;BME280;3833;41.764;26.204;2022-08-19T11:15:04;100178.88;;;40.97;30.46
7584;BME280;3833;41.764;26.204;2022-08-19T11:17:31;100179.56;;;42.06;28.59
7584;BME280;3833;41.764;26.204;2022-08-19T11:19:59;100164.88;;;40.67;29.19
7584;BME280;3833;41.764;26.204;2022-08-19T11:22:29;100155.13;;;39.05;31.86
7584;BME280;3833;41.764;26.204;2022-08-19T11:24:56;100161.97;;;40.47;30.20
7584;BME280;3833;41.764;26.204;2022-08-19T11:27:23;100165.94;;;41.65;29.95
7584;BME280;3833;41.764;26.204;2022-08-19T11:29:50;100161.97;;;41.46;29.27
7584;BME280;3833;41.764;26.204;2022-08-19T11:32:18;100153.03;;;42.52;28.08
7584;BME280;3833;41.764;26.204;2022-08-19T11:34:45;100143.72;;;41.25;29.47
7584;BME280;3833;41.764;26.204;2022-08-19T11:37:13;100154.53;;;40.74;29.99
7584;BME280;3833;41.764;26.204;2022-08-19T11:39:41;100152.41;;;39.21;31.93
7584;BME280;3833;41.764;26.204;2022-08-19T11:42:07;100153.19;;;39.38;31.31
7584;BME280;3833;41.764;26.204;2022-08-19T11:45:13;100146.44;;;40.05;30.68
7584;BME280;3833;41.764;26.204;2022-08-19T11:51:23;100142.41;;;40.12;31.17
7584;BME280;3833;41.764;26.204;2022-08-19T11:57:56;100140.88;;;41.57;29.08
7584;BME280;3833;41.764;26.204;2022-08-19T12:00:23;100131.59;;;40.27;29.86
7584;BME280;3833;41.764;26.204;2022-08-19T12:02:50;100131.41;;;39.10;31.14
7584;BME280;3833;41.764;26.204;2022-08-19T12:05:18;100133.72;;;38.53;32.70
7584;BME280;3833;41.764;26.204;2022-08-19T12:07:45;100127.50;;;39.39;30.88
7584;BME280;3833;41.764;26.204;2022-08-19T12:10:12;100083.59;;;39.29;31.85
7584;BME280;3833;41.764;26.204;2022-08-19T12:12:40;100124.06;;;40.13;30.96
7584;BME280;3833;41.764;26.204;2022-08-19T12:15:12;100124.56;;;40.10;30.52
7584;BME280;3833;41.764;26.204;2022-08-19T12:17:39;100118.88;;;39.69;30.91
7584;BME280;3833;41.764;26.204;2022-08-19T12:20:08;100109.38;;;38.35;32.28
7584;BME280;3833;41.764;26.204;2022-08-19T12:22:36;100120.72;;;37.99;33.49
7584;BME280;3833;41.764;26.204;2022-08-19T12:25:05;100118.72;;;37.71;33.35
7584;BME280;3833;41.764;26.204;2022-08-19T12:27:32;100122.81;;;37.57;33.88
7584;BME280;3833;41.764;26.204;2022-08-19T12:29:59;100119.22;;;38.08;33.40
7584;BME280;3833;41.764;26.204;2022-08-19T12:32:28;100104.75;;;37.40;33.96
7584;BME280;3833;41.764;26.204;2022-08-19T12:34:55;100105.41;;;37.24;34.66
7584;BME280;3833;41.764;26.204;2022-08-19T12:37:22;100118.56;;;38.01;33.47
7584;BME280;3833;41.764;26.204;2022-08-19T12:39:49;100111.13;;;37.73;34.00
7584;BME280;3833;41.764;26.204;2022-08-19T12:42:16;100093.59;;;37.81;34.24
7584;BME280;3833;41.764;26.204;2022-08-19T12:44:44;100068.72;;;38.22;33.07
7584;BME280;3833;41.764;26.204;2022-08-19T12:47:12;100107.09;;;38.60;32.95
7584;BME280;3833;41.764;26.204;2022-08-19T12:49:41;100105.63;;;38.85;32.72
7584;BME280;3833;41.764;26.204;2022-08-19T12:52:09;100100.66;;;38.82;32.79
7584;BME280;3833;41.764;26.204;2022-08-19T12:54:40;100101.03;;;39.07;31.74
7584;BME280;3833;41.764;26.204;2022-08-19T12:57:08;100098.91;;;39.30;32.29
7584;BME280;3833;41.764;26.204;2022-08-19T12:59:36;100104.13;;;38.77;32.97
7584;BME280;3833;41.764;26.204;2022-08-19T13:02:03;100104.84;;;38.57;32.77
7584;BME280;3833;41.764;26.204;2022-08-19T13:04:30;100094.38;;;37.53;33.65
7584;BME280;3833;41.764;26.204;2022-08-19T13:06:58;100091.44;;;37.83;33.07
7584;BME280;3833;41.764;26.204;2022-08-19T13:09:25;100093.19;;;37.61;33.25
7584;BME280;3833;41.764;26.204;2022-08-19T13:11:52;100057.00;;;37.93;33.45
7584;BME280;3833;41.764;26.204;2022-08-19T13:14:20;100089.53;;;38.88;32.87
7584;BME280;3833;41.764;26.204;2022-08-19T13:16:47;100088.47;;;39.27;32.41